sensor_id;sensor_type;location;lat;lon;timestamp;P1;durP1;ratioP1;P2;durP2;ratioP2
3881;SDS011;1956;53.482;10.238;2023-08-21T00:02:11;5.40;;;2.17;;
3881;SDS011;1956;53.482;10.238;2023-08-21T00:07:11;3.77;;;2.53;;
3881;SDS011;1956;53.482;10.238;2023-08-21T00:12:12;3.07;;;2.77;;
3881;SDS011;1956;53.482;10.238;2023-08-21T00:17:12;8.20;;;2.70;;
3881;SDS011;1956;53.482;10.238;2023-08-21T00:22:12;3.30;;;2.23;;
3881;SDS011;1956;53.482;10.238;2023-08-21T00:27:12;6.83;;;2.47;;
3881;SDS011;1956;53.482;10.238;2023-08-21T00:32:13;3.80;;;2.27;;
3881;SDS011;1956;53.482;10.238;2023-08-21T00:37:13;7.50;;;3.90;;
3881;SDS011;1956;53.482;10.238;2023-08-21T00:42:13;4.07;;;2.10;;
3881;SDS011;1956;53.482;10.238;2023-08-21T00:47:13;4.60;;;2.40;;
3881;SDS011;1956;53.482;10.238;2023-08-21T00:52:14;3.27;;;2.20;;
3881;SDS011;1956;53.482;10.238;2023-08-21T00:57:14;2.60;;;2.40;;
3881;SDS011;1956;53.482;10.238;2023-08-21T01:02:14;3.37;;;2.50;;
3881;SDS011;1956;53.482;10.238;2023-08-21T01:07:15;6.43;;;2.30;;
3881;SDS011;1956;53.482;10.238;2023-08-21T01:12:35;9.37;;;2.67;;
3881;SDS011;1956;53.482;10.238;2023-08-21T01:17:37;10.10;;;2.70;;
3881;SDS011;1956;53.482;10.238;2023-08-21T01:22:41;4.63;;;2.40;;
3881;SDS011;1956;53.482;10.238;2023-08-21T01:27:47;4.10;;;2.80;;
3881;SDS011;1956;53.482;10.238;2023-08-21T01:33:03;6.87;;;2.53;;
3881;SDS011;1956;53.482;10.238;2023-08-21T01:38:05;2.60;;;2.40;;
3881;SDS011;1956;53.482;10.238;2023-08-21T01:43:06;5.30;;;2.30;;
3881;SDS011;1956;53.482;10.238;2023-08-21T01:48:06;4.97;;;2.90;;
3881;SDS011;1956;53.482;10.238;2023-08-21T01:53:06;4.20;;;2.60;;
3881;SDS011;1956;53.482;10.238;2023-08-21T01:58:07;3.97;;;2.57;;
3881;SDS011;1956;53.482;10.238;2023-08-21T02:03:07;6.83;;;3.03;;
3881;SDS011;1956;53.482;10.238;2023-08-21T02:08:08;4.03;;;2.70;;
3881;SDS011;1956;53.482;10.238;2023-08-21T02:13:09;9.53;;;2.80;;
3881;SDS011;1956;53.482;10.238;2023-08-21T02:18:09;3.40;;;2.63;;
3881;SDS011;1956;53.482;10.238;2023-08-21T02:23:09;5.33;;;3.30;;
3881;SDS011;1956;53.482;10.238;2023-08-21T02:28:10;11.47;;;3.20;;
3881;SDS011;1956;53.482;10.238;2023-08-21T02:33:10;7.67;;;2.43;;
3881;SDS011;1956;53.482;10.238;2023-08-21T02:38:10;6.93;;;3.00;;
3881;SDS011;1956;53.482;10.238;2023-08-21T02:43:10;3.90;;;3.00;;
3881;SDS011;1956;53.482;10.238;2023-08-21T02:48:11;4.23;;;2.50;;
3881;SDS011;1956;53.482;10.238;2023-08-21T02:53:11;3.43;;;3.13;;
3881;SDS011;1956;53.482;10.238;2023-08-21T02:58:11;3.30;;;3.00;;
3881;SDS011;1956;53.482;10.238;2023-08-21T03:03:11;5.17;;;2.67;;
3881;SDS011;1956;53.482;10.238;2023-08-21T03:08:12;8.30;;;3.60;;
3881;SDS011;1956;53.482;10.238;2023-08-21T03:13:12;2.90;;;2.63;;
3881;SDS011;1956;53.482;10.238;2023-08-21T03:18:12;7.43;;;3.30;;
3881;SDS011;1956;53.482;10.238;2023-08-21T03:23:13;4.10;;;3.10;;
3881;SDS011;1956;53.482;10.238;2023-08-21T03:28:13;5.53;;;3.27;;
3881;SDS011;1956;53.482;10.238;2023-08-21T03:33:14;5.10;;;3.10;;
3881;SDS011;1956;53.482;10.238;2023-08-21T03:38:14;6.30;;;3.23;;
3881;SDS011;1956;53.482;10.238;2023-08-21T03:43:14;5.83;;;3.13;;
3881;SDS011;1956;53.482;10.238;2023-08-21T03:48:14;3.00;;;2.70;;
3881;SDS011;1956;53.482;10.238;2023-08-21T03:53:14;8.80;;;2.70;;
3881;SDS011;1956;53.482;10.238;2023-08-21T03:58:15;4.70;;;3.93;;
3881;SDS011;1956;53.482;10.238;2023-08-21T04:03:15;5.17;;;3.40;;
3881;SDS011;1956;53.482;10.238;2023-08-21T04:08:15;3.60;;;3.00;;
3881;SDS011;1956;53.482;10.238;2023-08-21T04:13:15;3.70;;;3.07;;
3881;SDS011;1956;53.482;10.238;2023-08-21T04:18:16;9.83;;;4.30;;
3881;SDS011;1956;53.482;10.238;2023-08-21T04:23:16;5.30;;;3.70;;
3881;SDS011;1956;53.482;10.238;2023-08-21T04:28:16;3.27;;;2.87;;
3881;SDS011;1956;53.482;10.238;2023-08-21T04:33:16;5.63;;;3.17;;
3881;SDS011;1956;53.482;10.238;2023-08-21T04:38:17;4.53;;;4.13;;
3881;SDS011;1956;53.482;10.238;2023-08-21T04:43:17;6.27;;;4.43;;
3881;SDS011;1956;53.482;10.238;2023-08-21T04:48:17;4.93;;;3.00;;
3881;SDS011;1956;53.482;10.238;2023-08-21T04:53:17;5.72;;;3.33;;
3881;SDS011;1956;53.482;10.238;2023-08-21T04:58:18;10.50;;;4.20;;
3881;SDS011;1956;53.482;10.238;2023-08-21T05:03:18;6.60;;;3.70;;
3881;SDS011;1956;53.482;10.238;2023-08-21T05:08:18;5.90;;;3.90;;
3881;SDS011;1956;53.482;10.238;2023-08-21T05:13:18;4.97;;;4.57;;
3881;SDS011;1956;53.482;10.238;2023-08-21T05:18:19;6.53;;;4.20;;
3881;SDS011;1956;53.482;10.238;2023-08-21T05:23:19;7.38;;;3.95;;
3881;SDS011;1956;53.482;10.238;2023-08-21T05:28:19;6.00;;;5.13;;
3881;SDS011;1956;53.482;10.238;2023-08-21T05:33:19;12.90;;;5.17;;
3881;SDS011;1956;53.482;10.238;2023-08-21T05:38:20;5.80;;;5.20;;
3881;SDS011;1956;53.482;10.238;2023-08-21T05:43:20;9.90;;;5.20;;
3881;SDS011;1956;53.482;10.238;2023-08-21T05:48:20;7.00;;;3.83;;
3881;SDS011;1956;53.482;10.238;2023-08-21T05:53:20;11.93;;;4.37;;
3881;SDS011;1956;53.482;10.238;2023-08-21T05:58:21;4.83;;;4.33;;
3881;SDS011;1956;53.482;10.238;2023-08-21T06:03:21;4.87;;;4.30;;
3881;SDS011;1956;53.482;10.238;2023-08-21T06:08:21;6.13;;;3.93;;
3881;SDS011;1956;53.482;10.238;2023-08-21T06:13:21;4.80;;;3.38;;
3881;SDS011;1956;53.482;10.238;2023-08-21T06:18:22;7.15;;;4.50;;
3881;SDS011;1956;53.482;10.238;2023-08-21T06:23:22;12.17;;;5.77;;
3881;SDS011;1956;53.482;10.238;2023-08-21T06:28:22;8.10;;;4.70;;
3881;SDS011;1956;53.482;10.238;2023-08-21T06:33:23;8.10;;;4.83;;
3881;SDS011;1956;53.482;10.238;2023-08-21T06:38:23;12.40;;;6.00;;
3881;SDS011;1956;53.482;10.238;2023-08-21T06:43:23;10.03;;;5.80;;
3881;SDS011;1956;53.482;10.238;2023-08-21T06:48:23;15.00;;;6.13;;
3881;SDS011;1956;53.482;10.238;2023-08-21T06:53:25;10.87;;;5.63;;
3881;SDS011;1956;53.482;10.238;2023-08-21T06:58:25;18.23;;;6.30;;
3881;SDS011;1956;53.482;10.238;2023-08-21T07:03:25;13.80;;;6.70;;
3881;SDS011;1956;53.482;10.238;2023-08-21T07:08:26;16.43;;;5.00;;
3881;SDS011;1956;53.482;10.238;2023-08-21T07:13:26;7.37;;;3.47;;
3881;SDS011;1956;53.482;10.238;2023-08-21T07:18:26;10.27;;;3.17;;
3881;SDS011;1956;53.482;10.238;2023-08-21T07:23:27;11.43;;;2.83;;
3881;SDS011;1956;53.482;10.238;2023-08-21T07:28:27;8.43;;;2.13;;
3881;SDS011;1956;53.482;10.238;2023-08-21T07:33:27;4.73;;;1.87;;
3881;SDS011;1956;53.482;10.238;2023-08-21T07:38:28;3.63;;;1.60;;
3881;SDS011;1956;53.482;10.238;2023-08-21T07:43:28;11.50;;;2.70;;
3881;SDS011;1956;53.482;10.238;2023-08-21T07:48:28;4.73;;;1.97;;
3881;SDS011;1956;53.482;10.238;2023-08-21T07:53:29;4.43;;;1.50;;
3881;SDS011;1956;53.482;10.238;2023-08-21T07:58:31;7.73;;;1.83;;
3881;SDS011;1956;53.482;10.238;2023-08-21T08:03:31;2.23;;;1.57;;
3881;SDS011;1956;53.482;10.238;2023-08-21T08:08:32;1.77;;;1.00;;
3881;SDS011;1956;53.482;10.238;2023-08-21T08:13:32;5.32;;;1.75;;
3881;SDS011;1956;53.482;10.238;2023-08-21T08:18:33;7.33;;;1.50;;
3881;SDS011;1956;53.482;10.238;2023-08-21T08:23:33;3.80;;;1.30;;
3881;SDS011;1956;53.482;10.238;2023-08-21T08:28:33;2.20;;;1.00;;
3881;SDS011;1956;53.482;10.238;2023-08-21T08:33:33;2.43;;;1.10;;
3881;SDS011;1956;53.482;10.238;2023-08-21T08:38:34;5.53;;;1.40;;
3881;SDS011;1956;53.482;10.238;2023-08-21T08:43:34;2.97;;;1.27;;
3881;SDS011;1956;53.482;10.238;2023-08-21T08:48:35;6.47;;;1.30;;
3881;SDS011;1956;53.482;10.238;2023-08-21T08:53:36;4.93;;;1.30;;
3881;SDS011;1956;53.482;10.238;2023-08-21T08:58:37;7.83;;;1.20;;
3881;SDS011;1956;53.482;10.238;2023-08-21T09:03:37;6.97;;;1.77;;
3881;SDS011;1956;53.482;10.238;2023-08-21T09:08:37;5.70;;;1.70;;
3881;SDS011;1956;53.482;10.238;2023-08-21T09:13:37;2.97;;;1.47;;
3881;SDS011;1956;53.482;10.238;2023-08-21T09:18:38;2.83;;;1.70;;
3881;SDS011;1956;53.482;10.238;2023-08-21T09:23:39;3.80;;;0.90;;
3881;SDS011;1956;53.482;10.238;2023-08-21T09:28:39;3.23;;;1.17;;
3881;SDS011;1956;53.482;10.238;2023-08-21T09:33:39;5.30;;;1.20;;
3881;SDS011;1956;53.482;10.238;2023-08-21T09:38:40;1.53;;;0.93;;
3881;SDS011;1956;53.482;10.238;2023-08-21T09:43:45;0.70;;;0.60;;
3881;SDS011;1956;53.482;10.238;2023-08-21T09:48:45;2.67;;;1.00;;
3881;SDS011;1956;53.482;10.238;2023-08-21T09:53:50;3.53;;;1.20;;
3881;SDS011;1956;53.482;10.238;2023-08-21T09:58:50;3.73;;;1.40;;
3881;SDS011;1956;53.482;10.238;2023-08-21T10:03:51;3.47;;;0.93;;
3881;SDS011;1956;53.482;10.238;2023-08-21T10:08:54;3.53;;;1.10;;
3881;SDS011;1956;53.482;10.238;2023-08-21T10:13:55;1.50;;;1.10;;
3881;SDS011;1956;53.482;10.238;2023-08-21T10:19:00;3.07;;;1.20;;
3881;SDS011;1956;53.482;10.238;2023-08-21T10:24:02;5.10;;;1.20;;
3881;SDS011;1956;53.482;10.238;2023-08-21T10:29:03;3.13;;;1.17;;
3881;SDS011;1956;53.482;10.238;2023-08-21T10:34:07;3.50;;;1.53;;
3881;SDS011;1956;53.482;10.238;2023-08-21T10:39:17;1.37;;;1.03;;
3881;SDS011;1956;53.482;10.238;2023-08-21T10:44:23;2.17;;;0.80;;
3881;SDS011;1956;53.482;10.238;2023-08-21T10:49:33;2.27;;;1.10;;
3881;SDS011;1956;53.482;10.238;2023-08-21T10:54:46;1.27;;;0.80;;
3881;SDS011;1956;53.482;10.238;2023-08-21T11:00:06;3.00;;;1.60;;
3881;SDS011;1956;53.482;10.238;2023-08-21T11:05:09;1.03;;;0.80;;
3881;SDS011;1956;53.482;10.238;2023-08-21T11:10:14;1.20;;;1.00;;
3881;SDS011;1956;53.482;10.238;2023-08-21T11:15:15;2.93;;;1.07;;
3881;SDS011;1956;53.482;10.238;2023-08-21T11:20:15;1.20;;;1.03;;
3881;SDS011;1956;53.482;10.238;2023-08-21T11:25:15;2.50;;;0.77;;
3881;SDS011;1956;53.482;10.238;2023-08-21T11:30:19;1.57;;;1.07;;
3881;SDS011;1956;53.482;10.238;2023-08-21T11:35:19;3.23;;;1.03;;
3881;SDS011;1956;53.482;10.238;2023-08-21T11:40:19;3.10;;;1.00;;
3881;SDS011;1956;53.482;10.238;2023-08-21T11:45:20;3.90;;;1.13;;
3881;SDS011;1956;53.482;10.238;2023-08-21T11:50:21;1.83;;;0.97;;
3881;SDS011;1956;53.482;10.238;2023-08-21T11:55:21;1.60;;;0.77;;
3881;SDS011;1956;53.482;10.238;2023-08-21T12:00:28;1.50;;;0.80;;
3881;SDS011;1956;53.482;10.238;2023-08-21T12:05:29;1.57;;;1.00;;
3881;SDS011;1956;53.482;10.238;2023-08-21T12:10:30;1.20;;;1.10;;
3881;SDS011;1956;53.482;10.238;2023-08-21T12:15:30;2.37;;;1.20;;
3881;SDS011;1956;53.482;10.238;2023-08-21T12:20:30;2.17;;;1.00;;
3881;SDS011;1956;53.482;10.238;2023-08-21T12:25:30;1.83;;;1.03;;
3881;SDS011;1956;53.482;10.238;2023-08-21T12:30:31;2.07;;;1.17;;
3881;SDS011;1956;53.482;10.238;2023-08-21T12:35:32;1.77;;;1.07;;
3881;SDS011;1956;53.482;10.238;2023-08-21T12:40:32;1.47;;;0.87;;
3881;SDS011;1956;53.482;10.238;2023-08-21T12:45:32;2.83;;;0.83;;
3881;SDS011;1956;53.482;10.238;2023-08-21T12:50:33;1.90;;;1.07;;
3881;SDS011;1956;53.482;10.238;2023-08-21T12:55:33;4.30;;;1.30;;
3881;SDS011;1956;53.482;10.238;2023-08-21T13:00:33;2.43;;;0.93;;
3881;SDS011;1956;53.482;10.238;2023-08-21T13:05:33;2.80;;;1.10;;
3881;SDS011;1956;53.482;10.238;2023-08-21T13:10:34;2.20;;;0.93;;
3881;SDS011;1956;53.482;10.238;2023-08-21T13:15:34;1.02;;;0.77;;
3881;SDS011;1956;53.482;10.238;2023-08-21T13:20:35;1.40;;;1.30;;
3881;SDS011;1956;53.482;10.238;2023-08-21T13:25:35;4.10;;;1.20;;
3881;SDS011;1956;53.482;10.238;2023-08-21T13:30:35;3.67;;;1.17;;
3881;SDS011;1956;53.482;10.238;2023-08-21T13:35:35;3.63;;;1.30;;
3881;SDS011;1956;53.482;10.238;2023-08-21T13:40:36;1.63;;;1.20;;
3881;SDS011;1956;53.482;10.238;2023-08-21T13:45:36;1.30;;;1.20;;
3881;SDS011;1956;53.482;10.238;2023-08-21T13:50:36;3.20;;;1.33;;
3881;SDS011;1956;53.482;10.238;2023-08-21T13:55:37;2.53;;;1.07;;
3881;SDS011;1956;53.482;10.238;2023-08-21T14:00:38;3.10;;;0.93;;
3881;SDS011;1956;53.482;10.238;2023-08-21T14:05:38;1.30;;;1.20;;
3881;SDS011;1956;53.482;10.238;2023-08-21T14:10:38;1.50;;;1.00;;
3881;SDS011;1956;53.482;10.238;2023-08-21T14:15:38;2.00;;;1.00;;
3881;SDS011;1956;53.482;10.238;2023-08-21T14:20:40;2.33;;;1.10;;
3881;SDS011;1956;53.482;10.238;2023-08-21T14:25:40;1.10;;;0.93;;
3881;SDS011;1956;53.482;10.238;2023-08-21T14:30:41;2.13;;;0.90;;
3881;SDS011;1956;53.482;10.238;2023-08-21T14:35:41;0.77;;;0.70;;
3881;SDS011;1956;53.482;10.238;2023-08-21T14:40:41;4.40;;;1.30;;
3881;SDS011;1956;53.482;10.238;2023-08-21T14:45:42;3.17;;;1.20;;
3881;SDS011;1956;53.482;10.238;2023-08-21T14:50:42;1.57;;;0.83;;
3881;SDS011;1956;53.482;10.238;2023-08-21T14:55:42;1.97;;;1.00;;
3881;SDS011;1956;53.482;10.238;2023-08-21T15:00:42;0.93;;;0.80;;
3881;SDS011;1956;53.482;10.238;2023-08-21T15:05:43;1.43;;;0.90;;
3881;SDS011;1956;53.482;10.238;2023-08-21T15:10:43;1.30;;;1.00;;
3881;SDS011;1956;53.482;10.238;2023-08-21T15:15:43;5.67;;;0.83;;
3881;SDS011;1956;53.482;10.238;2023-08-21T15:20:44;1.20;;;0.93;;
3881;SDS011;1956;53.482;10.238;2023-08-21T15:25:45;3.10;;;0.90;;
3881;SDS011;1956;53.482;10.238;2023-08-21T15:30:45;2.10;;;0.83;;
3881;SDS011;1956;53.482;10.238;2023-08-21T15:35:45;2.73;;;1.03;;
3881;SDS011;1956;53.482;10.238;2023-08-21T15:40:46;2.03;;;1.10;;
3881;SDS011;1956;53.482;10.238;2023-08-21T15:45:46;1.40;;;0.67;;
3881;SDS011;1956;53.482;10.238;2023-08-21T15:50:46;1.43;;;1.00;;
3881;SDS011;1956;53.482;10.238;2023-08-21T15:55:46;1.00;;;0.63;;
3881;SDS011;1956;53.482;10.238;2023-08-21T16:00:47;2.93;;;0.70;;
3881;SDS011;1956;53.482;10.238;2023-08-21T16:05:47;1.73;;;0.73;;
3881;SDS011;1956;53.482;10.238;2023-08-21T16:10:47;5.00;;;1.20;;
3881;SDS011;1956;53.482;10.238;2023-08-21T16:15:48;2.53;;;0.70;;
3881;SDS011;1956;53.482;10.238;2023-08-21T16:20:48;1.03;;;0.90;;
3881;SDS011;1956;53.482;10.238;2023-08-21T16:25:49;2.80;;;1.00;;
3881;SDS011;1956;53.482;10.238;2023-08-21T16:30:49;1.67;;;0.90;;
3881;SDS011;1956;53.482;10.238;2023-08-21T16:35:49;0.80;;;0.80;;
3881;SDS011;1956;53.482;10.238;2023-08-21T16:40:49;1.20;;;0.77;;
3881;SDS011;1956;53.482;10.238;2023-08-21T16:45:50;2.30;;;1.10;;
3881;SDS011;1956;53.482;10.238;2023-08-21T16:50:50;0.80;;;0.80;;
3881;SDS011;1956;53.482;10.238;2023-08-21T16:55:50;1.93;;;0.73;;
3881;SDS011;1956;53.482;10.238;2023-08-21T17:00:51;1.20;;;0.73;;
3881;SDS011;1956;53.482;10.238;2023-08-21T17:05:55;1.57;;;0.90;;
3881;SDS011;1956;53.482;10.238;2023-08-21T17:10:56;1.37;;;0.87;;
3881;SDS011;1956;53.482;10.238;2023-08-21T17:15:56;1.77;;;1.03;;
3881;SDS011;1956;53.482;10.238;2023-08-21T17:20:57;2.57;;;1.20;;
3881;SDS011;1956;53.482;10.238;2023-08-21T17:25:57;2.30;;;0.67;;
3881;SDS011;1956;53.482;10.238;2023-08-21T17:30:58;1.40;;;0.80;;
3881;SDS011;1956;53.482;10.238;2023-08-21T17:35:58;2.87;;;1.00;;
3881;SDS011;1956;53.482;10.238;2023-08-21T17:40:58;5.23;;;0.97;;
3881;SDS011;1956;53.482;10.238;2023-08-21T17:45:58;1.80;;;1.30;;
3881;SDS011;1956;53.482;10.238;2023-08-21T17:50:59;3.93;;;1.07;;
3881;SDS011;1956;53.482;10.238;2023-08-21T17:55:59;2.30;;;1.10;;
3881;SDS011;1956;53.482;10.238;2023-08-21T18:00:59;1.43;;;0.70;;
3881;SDS011;1956;53.482;10.238;2023-08-21T18:06:00;0.80;;;0.70;;
3881;SDS011;1956;53.482;10.238;2023-08-21T18:11:00;2.30;;;1.07;;
3881;SDS011;1956;53.482;10.238;2023-08-21T18:16:03;2.50;;;1.00;;
3881;SDS011;1956;53.482;10.238;2023-08-21T18:21:03;4.20;;;1.17;;
3881;SDS011;1956;53.482;10.238;2023-08-21T18:26:05;1.53;;;0.73;;
3881;SDS011;1956;53.482;10.238;2023-08-21T18:31:05;2.30;;;1.00;;
3881;SDS011;1956;53.482;10.238;2023-08-21T18:36:06;1.70;;;1.07;;
3881;SDS011;1956;53.482;10.238;2023-08-21T18:41:07;2.87;;;1.00;;
3881;SDS011;1956;53.482;10.238;2023-08-21T18:46:07;1.03;;;0.93;;
3881;SDS011;1956;53.482;10.238;2023-08-21T18:51:07;2.50;;;1.53;;
3881;SDS011;1956;53.482;10.238;2023-08-21T18:56:08;2.63;;;1.90;;
3881;SDS011;1956;53.482;10.238;2023-08-21T19:01:08;1.60;;;1.50;;
3881;SDS011;1956;53.482;10.238;2023-08-21T19:06:08;4.60;;;1.53;;
3881;SDS011;1956;53.482;10.238;2023-08-21T19:11:09;2.37;;;1.70;;
3881;SDS011;1956;53.482;10.238;2023-08-21T19:16:11;1.57;;;1.47;;
3881;SDS011;1956;53.482;10.238;2023-08-21T19:21:14;2.50;;;1.57;;
3881;SDS011;1956;53.482;10.238;2023-08-21T19:26:14;2.87;;;1.37;;
3881;SDS011;1956;53.482;10.238;2023-08-21T19:31:14;2.40;;;1.40;;
3881;SDS011;1956;53.482;10.238;2023-08-21T19:36:15;2.30;;;1.30;;
3881;SDS011;1956;53.482;10.238;2023-08-21T19:41:15;1.70;;;1.60;;
3881;SDS011;1956;53.482;10.238;2023-08-21T19:46:15;2.30;;;1.10;;
3881;SDS011;1956;53.482;10.238;2023-08-21T19:51:16;1.80;;;1.70;;
3881;SDS011;1956;53.482;10.238;2023-08-21T19:56:16;4.70;;;2.33;;
3881;SDS011;1956;53.482;10.238;2023-08-21T20:01:16;2.10;;;1.97;;
3881;SDS011;1956;53.482;10.238;2023-08-21T20:06:16;7.90;;;2.73;;
3881;SDS011;1956;53.482;10.238;2023-08-21T20:11:17;2.60;;;2.40;;
3881;SDS011;1956;53.482;10.238;2023-08-21T20:16:17;4.03;;;2.60;;
3881;SDS011;1956;53.482;10.238;2023-08-21T20:21:17;4.20;;;2.53;;
3881;SDS011;1956;53.482;10.238;2023-08-21T20:26:19;6.63;;;1.97;;
3881;SDS011;1956;53.482;10.238;2023-08-21T20:31:19;6.33;;;2.70;;
3881;SDS011;1956;53.482;10.238;2023-08-21T20:36:19;1.88;;;1.70;;
3881;SDS011;1956;53.482;10.238;2023-08-21T20:41:20;4.25;;;2.42;;
3881;SDS011;1956;53.482;10.238;2023-08-21T20:46:20;2.50;;;1.90;;
3881;SDS011;1956;53.482;10.238;2023-08-21T20:51:20;3.00;;;1.80;;
3881;SDS011;1956;53.482;10.238;2023-08-21T20:56:21;2.73;;;1.67;;
3881;SDS011;1956;53.482;10.238;2023-08-21T21:01:21;9.50;;;1.80;;
3881;SDS011;1956;53.482;10.238;2023-08-21T21:06:21;4.17;;;1.90;;
3881;SDS011;1956;53.482;10.238;2023-08-21T21:11:22;2.57;;;1.70;;
3881;SDS011;1956;53.482;10.238;2023-08-21T21:16:22;2.20;;;2.00;;
3881;SDS011;1956;53.482;10.238;2023-08-21T21:21:22;3.97;;;1.87;;
3881;SDS011;1956;53.482;10.238;2023-08-21T21:26:22;2.97;;;2.27;;
3881;SDS011;1956;53.482;10.238;2023-08-21T21:31:23;5.23;;;2.90;;
3881;SDS011;1956;53.482;10.238;2023-08-21T21:36:24;4.77;;;2.90;;
3881;SDS011;1956;53.482;10.238;2023-08-21T21:41:24;4.63;;;2.90;;
3881;SDS011;1956;53.482;10.238;2023-08-21T21:46:24;8.47;;;2.80;;
3881;SDS011;1956;53.482;10.238;2023-08-21T21:51:25;3.60;;;2.93;;
3881;SDS011;1956;53.482;10.238;2023-08-21T21:56:26;8.10;;;2.93;;
3881;SDS011;1956;53.482;10.238;2023-08-21T22:01:26;3.40;;;2.27;;
3881;SDS011;1956;53.482;10.238;2023-08-21T22:06:26;3.92;;;2.00;;
3881;SDS011;1956;53.482;10.238;2023-08-21T22:11:27;2.17;;;1.90;;
3881;SDS011;1956;53.482;10.238;2023-08-21T22:16:28;6.00;;;1.50;;
3881;SDS011;1956;53.482;10.238;2023-08-21T22:21:28;1.70;;;1.37;;
3881;SDS011;1956;53.482;10.238;2023-08-21T22:26:30;5.43;;;1.87;;
3881;SDS011;1956;53.482;10.238;2023-08-21T22:31:30;4.70;;;1.80;;
3881;SDS011;1956;53.482;10.238;2023-08-21T22:36:30;2.13;;;1.60;;
3881;SDS011;1956;53.482;10.238;2023-08-21T22:41:31;2.60;;;1.17;;
3881;SDS011;1956;53.482;10.238;2023-08-21T22:46:31;1.53;;;1.43;;
3881;SDS011;1956;53.482;10.238;2023-08-21T22:51:31;5.50;;;1.33;;
3881;SDS011;1956;53.482;10.238;2023-08-21T22:56:31;1.50;;;1.40;;
3881;SDS011;1956;53.482;10.238;2023-08-21T23:01:32;1.87;;;1.50;;
3881;SDS011;1956;53.482;10.238;2023-08-21T23:06:32;3.53;;;1.53;;
3881;SDS011;1956;53.482;10.238;2023-08-21T23:11:32;4.50;;;1.70;;
3881;SDS011;1956;53.482;10.238;2023-08-21T23:16:32;1.80;;;1.20;;
3881;SDS011;1956;53.482;10.238;2023-08-21T23:21:33;4.50;;;1.50;;
3881;SDS011;1956;53.482;10.238;2023-08-21T23:26:33;1.33;;;1.20;;
3881;SDS011;1956;53.482;10.238;2023-08-21T23:31:33;2.07;;;1.47;;
3881;SDS011;1956;53.482;10.238;2023-08-21T23:36:34;3.83;;;1.47;;
3881;SDS011;1956;53.482;10.238;2023-08-21T23:41:34;2.97;;;1.70;;
3881;SDS011;1956;53.482;10.238;2023-08-21T23:46:34;1.73;;;1.40;;
3881;SDS011;1956;53.482;10.238;2023-08-21T23:51:35;1.37;;;1.13;;
3881;SDS011;1956;53.482;10.238;2023-08-21T23:56:35;1.50;;;1.40;;
